Terminal Aerodrome Forecast
Issued by NWS Albuquerque, NM

Home | Current Version | Previous Version | Text Only | Print | Product List | Glossary On
Versions: 1 2 3 4 5 6 7 8 9 10 11 12
000
FTUS45 KABQ 012300
TAFABQ
TAF
KABQ 012324Z 0200/0224 27018G28KT P6SM SCT100 SCT200
     FM020200 24010KT P6SM FEW100 SCT200
     FM020600 15006KT P6SM SKC
     FM021700 23012G22KT P6SM FEW090
     FM022000 25025G40KT P6SM FEW090=

USA.gov is the U.S. government's official web portal to all federal, state and local government web resources and services.